Time;durP1;ratioP1;P1;durP2;ratioP2;P2;SDS_P1;SDS_P2;PMS_P1;PMS_P2;Temp;Humidity;BMP_temperature;BMP_pressure;BME280_temperature;BME280_humidity;BME280_pressure;Samples;Min_cycle;Max_cycle;Signal;HPM_P1;HPM_P2
2022/06/08 00:02:03;;;;;;;3.47;2.63;;;;;;;13.35;72.65;96083.72;5094834;28;20434;-61
2022/06/08 00:04:28;;;;;;;3.13;2.78;;;;;;;13.36;72.38;96085.41;5094624;28;20081;-62
2022/06/08 00:06:55;;;;;;;3.50;2.70;;;;;;;13.32;72.63;96083.03;5094587;28;20024;-62
2022/06/08 00:09:21;;;;;;;3.40;3.10;;;;;;;13.35;72.29;96081.09;5094504;28;20035;-61
2022/06/08 00:11:47;;;;;;;6.47;3.00;;;;;;;13.34;72.04;96078.56;5094422;28;20044;-61
2022/06/08 00:14:14;;;;;;;3.38;2.67;;;;;;;13.29;72.01;96072.72;5094426;28;20055;-63
2022/06/08 00:16:41;;;;;;;5.82;2.70;;;;;;;13.25;71.90;96065.00;5094110;28;20492;-63
2022/06/08 00:19:06;;;;;;;3.17;2.72;;;;;;;13.17;71.69;96069.00;5094572;28;20427;-63
2022/06/08 00:21:32;;;;;;;5.53;2.50;;;;;;;13.12;71.85;96069.25;5094384;28;20016;-63
2022/06/08 00:23:58;;;;;;;2.80;2.60;;;;;;;13.08;72.39;96078.22;5094323;28;20099;-63
2022/06/08 00:26:24;;;;;;;5.90;3.10;;;;;;;13.05;73.00;96068.75;5094178;28;20020;-63
2022/06/08 00:28:51;;;;;;;6.88;3.40;;;;;;;13.07;73.53;96064.28;5094100;28;20032;-62
2022/06/08 00:31:16;;;;;;;5.55;2.83;;;;;;;13.10;73.16;96066.69;5094244;28;20027;-63
2022/06/08 00:33:42;;;;;;;2.65;2.35;;;;;;;13.11;73.17;96070.19;5094146;28;20024;-64
2022/06/08 00:36:08;;;;;;;3.75;2.78;;;;;;;13.02;72.53;96069.78;5094077;28;20028;-62
2022/06/08 00:38:35;;;;;;;6.00;2.78;;;;;;;12.96;72.69;96070.13;5094039;28;20028;-61
2022/06/08 00:41:12;;;;;;;4.88;2.80;;;;;;;12.97;73.34;96069.19;5093888;28;20031;-63
2022/06/08 00:43:38;;;;;;;7.40;2.85;;;;;;;12.99;73.36;96069.09;5094069;28;20439;-63
2022/06/08 00:46:05;;;;;;;3.40;2.75;;;;;;;12.99;73.81;96069.94;5093929;28;20016;-62
2022/06/08 00:48:36;;;;;;;4.45;2.80;;;;;;;13.09;73.92;96059.78;5093808;28;20038;-62
2022/06/08 00:51:02;;;;;;;4.05;2.55;;;;;;;13.06;73.75;96067.81;5093733;28;20489;-62
2022/06/08 00:53:37;;;;;;;4.47;2.65;;;;;;;13.02;72.88;96063.66;5093695;28;20028;-62
2022/06/08 00:56:06;;;;;;;8.82;3.00;;;;;;;13.02;72.86;96066.28;5093724;28;20032;-62
2022/06/08 00:58:36;;;;;;;5.72;3.03;;;;;;;13.02;73.09;96068.91;5093675;28;20047;-61
2022/06/08 01:01:01;;;;;;;3.38;2.65;;;;;;;12.99;72.96;96075.19;5093661;28;20031;-63
2022/06/08 01:03:28;;;;;;;3.88;2.63;;;;;;;12.92;72.64;96063.34;5093507;28;20381;-63
2022/06/08 01:06:01;;;;;;;3.42;2.90;;;;;;;12.89;73.56;96071.38;5092748;28;20016;-61
2022/06/08 01:08:32;;;;;;;3.10;2.58;;;;;;;12.85;73.73;96069.84;5093446;28;20020;-63
2022/06/08 01:11:01;;;;;;;4.60;3.00;;;;;;;12.85;73.30;96065.44;5093422;28;20436;-62
2022/06/08 01:13:29;;;;;;;3.55;3.13;;;;;;;12.84;73.23;96055.03;5093460;28;20114;-63
2022/06/08 01:15:55;;;;;;;5.22;2.53;;;;;;;12.82;73.08;96060.38;5093135;28;20043;-62
2022/06/08 01:18:21;;;;;;;3.17;2.80;;;;;;;12.76;72.92;96058.94;5093434;28;20436;-63
2022/06/08 01:20:55;;;;;;;3.58;2.70;;;;;;;12.75;73.38;96059.00;5093330;28;20043;-61
2022/06/08 01:23:23;;;;;;;6.93;2.80;;;;;;;12.72;73.43;96056.53;5093256;28;20020;-63
2022/06/08 01:26:13;;;;;;;5.53;2.97;;;;;;;12.71;74.55;96063.59;5093314;28;20473;-61
2022/06/08 01:29:08;;;;;;;3.53;2.67;;;;;;;12.75;74.40;96072.97;5093165;28;20027;-62
2022/06/08 01:31:49;;;;;;;6.50;2.90;;;;;;;12.79;74.61;96068.41;5093334;28;20035;-62
2022/06/08 01:34:51;;;;;;;3.50;2.75;;;;;;;12.80;74.04;96066.63;5093213;28;20089;-63
2022/06/08 01:37:46;;;;;;;3.95;2.70;;;;;;;12.72;73.89;96064.41;5093214;28;20031;-63
2022/06/08 01:40:30;;;;;;;2.85;2.58;;;;;;;12.69;73.69;96061.97;5093260;28;20032;-63
2022/06/08 01:43:21;;;;;;;4.82;2.55;;;;;;;12.65;73.69;96058.66;5093196;28;20032;-63
2022/06/08 01:46:06;;;;;;;4.78;3.08;;;;;;;12.68;73.98;96061.13;5093037;28;20024;-63
2022/06/08 01:48:40;;;;;;;3.78;2.83;;;;;;;12.73;74.25;96048.59;5092985;28;20504;-63
2022/06/08 01:51:24;;;;;;;3.25;2.95;;;;;;;12.77;74.30;96055.34;5093078;28;20040;-63
2022/06/08 01:53:49;;;;;;;6.22;2.53;;;;;;;12.78;73.85;96050.97;5093099;28;20115;-63
2022/06/08 01:56:33;;;;;;;3.67;2.75;;;;;;;12.75;73.35;96053.75;5093165;28;20052;-61
2022/06/08 01:59:19;;;;;;;5.50;2.47;;;;;;;12.71;73.04;96047.84;5092966;28;20367;-63
2022/06/08 02:01:46;;;;;;;3.42;2.45;;;;;;;12.70;74.30;96048.75;5092476;28;20062;-61
2022/06/08 02:04:43;;;;;;;2.80;2.58;;;;;;;12.76;74.03;96050.19;5092952;28;20481;-63
2022/06/08 02:07:27;;;;;;;3.20;2.90;;;;;;;12.71;74.69;96049.63;5092894;28;20115;-62
2022/06/08 02:09:56;;;;;;;6.32;2.70;;;;;;;12.64;75.17;96049.09;5092971;28;20032;-62
2022/06/08 02:12:22;;;;;;;2.65;2.45;;;;;;;12.55;74.51;96046.97;5092830;28;20120;-63
2022/06/08 02:14:56;;;;;;;4.35;3.25;;;;;;;12.52;75.51;96050.59;5092879;28;20024;-63
2022/06/08 02:18:04;;;;;;;3.42;3.13;;;;;;;12.55;74.92;96050.44;5094802;28;20122;-62
2022/06/08 02:20:42;;;;;;;3.85;2.75;;;;;;;12.54;75.06;96053.13;5014741;28;20038;-61
2022/06/08 02:23:14;;;;;;;6.88;3.28;;;;;;;12.59;74.95;96054.59;5014623;28;20038;-62
2022/06/08 02:25:49;;;;;;;6.40;2.90;;;;;;;12.65;74.54;96058.66;5065614;28;20054;-62
2022/06/08 02:28:20;;;;;;;3.15;2.83;;;;;;;12.68;74.12;96060.28;5096615;28;20028;-62
2022/06/08 02:31:00;;;;;;;5.80;3.13;;;;;;;12.66;74.14;96054.25;5096550;28;20034;-62
2022/06/08 02:36:23;;;;;;;7.65;2.85;;;;;;;12.59;73.77;96051.13;5096623;28;20189;-61
2022/06/08 02:38:54;;;;;;;2.92;2.60;;;;;;;12.57;73.71;96040.72;5096439;28;20078;-64
2022/06/08 02:41:22;;;;;;;3.28;2.78;;;;;;;12.59;73.78;96053.75;5096308;28;20031;-62
2022/06/08 02:43:59;;;;;;;3.97;2.85;;;;;;;12.55;73.64;96047.81;5096277;28;20047;-64
2022/06/08 02:46:48;;;;;;;3.47;3.03;;;;;;;12.51;73.63;96038.41;5096090;28;20028;-62
2022/06/08 02:49:14;;;;;;;3.30;3.00;;;;;;;12.51;74.05;96048.91;5096062;28;20031;-63
2022/06/08 02:51:46;;;;;;;5.40;2.85;;;;;;;12.58;74.46;96044.19;5096043;28;20020;-64
2022/06/08 02:54:25;;;;;;;4.07;2.97;;;;;;;12.58;73.59;96046.81;5096102;28;20028;-63
2022/06/08 02:57:00;;;;;;;3.63;2.92;;;;;;;12.55;73.55;96054.84;5096043;28;20461;-63
2022/06/08 02:59:35;;;;;;;3.60;2.92;;;;;;;12.54;74.15;96045.28;5095919;28;20055;-63
2022/06/08 03:02:09;;;;;;;2.60;2.38;;;;;;;12.58;74.00;96052.88;5095839;28;20027;-63
2022/06/08 03:04:53;;;;;;;3.15;2.85;;;;;;;12.64;73.75;96055.19;5095926;28;20036;-63
2022/06/08 03:07:23;;;;;;;5.57;3.10;;;;;;;12.67;73.73;96058.59;5095812;28;20027;-63
2022/06/08 03:09:52;;;;;;;4.03;2.60;;;;;;;12.68;74.07;96065.53;5095859;28;20433;-62
2022/06/08 03:12:30;;;;;;;5.10;2.67;;;;;;;12.74;74.25;96060.78;5095596;28;20040;-62
2022/06/08 03:14:56;;;;;;;3.22;2.88;;;;;;;12.77;74.56;96063.22;5095341;28;20486;-64
2022/06/08 03:17:27;;;;;;;6.18;2.75;;;;;;;12.82;74.39;96057.75;5095788;28;20095;-62
2022/06/08 03:19:53;;;;;;;5.75;2.80;;;;;;;12.84;74.26;96070.78;5095618;28;20036;-64
2022/06/08 03:22:19;;;;;;;6.07;2.47;;;;;;;12.93;74.13;96066.78;5095455;28;20061;-62
2022/06/08 03:24:45;;;;;;;4.78;2.70;;;;;;;13.01;73.44;96067.25;5095413;28;20028;-63
2022/06/08 03:27:12;;;;;;;4.18;2.90;;;;;;;13.05;73.57;96058.25;5095284;28;20103;-63
2022/06/08 03:29:38;;;;;;;3.10;2.33;;;;;;;13.35;73.81;96060.09;5094599;28;20047;-63
2022/06/08 03:32:04;;;;;;;6.50;2.60;;;;;;;13.67;72.38;96068.88;5095379;28;20031;-61
2022/06/08 03:34:31;;;;;;;2.70;2.10;;;;;;;13.97;70.85;96073.25;5095276;28;20024;-62
2022/06/08 03:36:56;;;;;;;7.40;2.33;;;;;;;14.24;69.86;96067.28;5095215;28;20017;-63
2022/06/08 03:39:23;;;;;;;3.63;2.50;;;;;;;14.54;69.36;96074.22;5095219;28;20035;-62
2022/06/08 03:41:48;;;;;;;3.55;2.50;;;;;;;14.88;68.79;96064.28;5095062;28;20031;-63
2022/06/08 03:44:14;;;;;;;2.63;2.08;;;;;;;15.26;68.05;96064.56;5095157;28;20036;-61
2022/06/08 03:46:52;;;;;;;3.03;2.30;;;;;;;15.66;66.75;96061.94;5093713;28;20024;-63
2022/06/08 03:49:19;;;;;;;3.05;2.17;;;;;;;16.05;66.40;96066.50;5094893;28;21387;-62
2022/06/08 03:51:46;;;;;;;5.80;1.98;;;;;;;16.46;65.24;96055.84;5094957;28;20016;-62
2022/06/08 03:54:16;;;;;;;5.53;2.65;;;;;;;16.89;63.44;96065.16;5094901;28;20081;-62
2022/06/08 03:56:45;;;;;;;4.60;2.35;;;;;;;17.25;62.87;96060.00;5095018;28;20048;-63
2022/06/08 03:59:12;;;;;;;2.83;2.00;;;;;;;17.68;62.26;96053.34;5094727;28;20466;-63
2022/06/08 04:01:39;;;;;;;2.38;1.92;;;;;;;18.13;61.75;96062.41;5094855;28;20108;-63
2022/06/08 04:04:04;;;;;;;3.83;2.10;;;;;;;18.56;61.27;96067.03;5094653;28;20024;-63
2022/06/08 04:06:31;;;;;;;3.33;2.10;;;;;;;19.00;60.21;96068.09;5094576;28;20106;-65
2022/06/08 04:08:57;;;;;;;3.80;1.92;;;;;;;19.38;59.77;96072.13;5094603;28;20115;-64
2022/06/08 04:11:22;;;;;;;2.03;1.75;;;;;;;19.62;58.82;96076.41;5094473;28;20404;-64
2022/06/08 04:13:48;;;;;;;4.38;2.10;;;;;;;19.57;58.63;96075.94;5094467;28;20444;-62
2022/06/08 04:16:15;;;;;;;6.63;2.25;;;;;;;19.59;58.67;96070.53;5094151;28;20028;-65
2022/06/08 04:18:41;;;;;;;2.72;2.15;;;;;;;19.61;57.82;96090.63;5094377;28;20028;-64
2022/06/08 04:21:09;;;;;;;2.40;2.20;;;;;;;19.74;57.10;96082.50;5094399;28;20358;-64
2022/06/08 04:23:36;;;;;;;2.97;2.30;;;;;;;20.08;55.51;96082.38;5094236;28;20028;-63
2022/06/08 04:26:03;;;;;;;6.97;2.08;;;;;;;20.43;55.09;96087.47;5094098;28;20359;-63
2022/06/08 04:28:29;;;;;;;3.85;2.17;;;;;;;20.67;52.54;96079.22;5094255;28;20043;-65
2022/06/08 04:30:55;;;;;;;3.05;2.30;;;;;;;20.73;52.68;96075.19;5094209;28;20073;-64
2022/06/08 04:33:21;;;;;;;4.03;2.22;;;;;;;20.76;52.75;96074.91;5094212;28;20363;-63
2022/06/08 04:35:46;;;;;;;3.83;2.08;;;;;;;21.05;54.18;96079.53;5094002;28;20046;-63
2022/06/08 04:38:12;;;;;;;4.28;2.67;;;;;;;21.31;53.77;96073.72;5094093;28;20063;-63
2022/06/08 04:40:39;;;;;;;5.40;1.90;;;;;;;21.75;54.22;96067.19;5093914;28;20021;-63
2022/06/08 04:43:05;;;;;;;2.85;2.22;;;;;;;22.08;50.96;96074.88;5093874;28;20026;-63
2022/06/08 04:45:32;;;;;;;3.38;1.88;;;;;;;22.39;49.45;96080.00;5093974;28;20028;-65
2022/06/08 04:47:57;;;;;;;5.82;2.50;;;;;;;22.79;49.39;96077.28;5093803;28;20028;-65
2022/06/08 04:50:23;;;;;;;3.17;2.03;;;;;;;23.21;48.10;96067.94;5093852;28;20031;-63
2022/06/08 04:52:48;;;;;;;2.70;2.00;;;;;;;23.64;46.17;96068.25;5093732;28;20017;-64
2022/06/08 04:55:15;;;;;;;2.90;2.00;;;;;;;24.02;44.71;96061.91;5093679;28;20020;-65
2022/06/08 04:57:41;;;;;;;6.70;2.00;;;;;;;24.35;44.16;96071.03;5093620;28;20470;-65
2022/06/08 05:00:16;;;;;;;3.00;2.00;;;;;;;24.65;43.57;96065.34;5093675;28;20027;-63
2022/06/08 05:02:44;;;;;;;3.63;2.00;;;;;;;24.97;44.20;96069.22;5093700;28;20393;-63
2022/06/08 05:05:19;;;;;;;2.72;1.88;;;;;;;25.25;44.63;96068.13;5093527;28;20016;-63
2022/06/08 05:07:46;;;;;;;3.97;1.63;;;;;;;25.46;44.55;96069.53;5093538;28;20032;-65
2022/06/08 05:10:12;;;;;;;2.55;1.95;;;;;;;25.70;42.73;96066.09;5093446;28;20035;-64
2022/06/08 05:12:39;;;;;;;2.78;2.13;;;;;;;25.71;42.35;96070.44;5093468;28;20020;-65
2022/06/08 05:15:08;;;;;;;6.13;2.42;;;;;;;25.97;42.66;96072.16;5093264;28;20012;-66
2022/06/08 05:17:34;;;;;;;6.05;2.10;;;;;;;26.10;42.06;96070.81;5093545;28;20085;-64
2022/06/08 05:20:03;;;;;;;1.92;1.73;;;;;;;26.19;41.77;96077.81;5093485;28;20135;-63
2022/06/08 05:22:29;;;;;;;7.45;1.90;;;;;;;26.35;42.20;96074.34;5093289;28;20028;-65
2022/06/08 05:24:55;;;;;;;3.78;1.98;;;;;;;26.56;41.71;96069.44;5093180;28;20046;-64
2022/06/08 05:27:21;;;;;;;3.15;2.13;;;;;;;26.71;41.01;96073.09;5093180;28;20012;-66
2022/06/08 05:29:46;;;;;;;2.10;1.90;;;;;;;26.88;40.45;96075.72;5093282;28;20370;-63
2022/06/08 05:32:12;;;;;;;2.53;1.67;;;;;;;27.02;40.62;96079.56;5093226;28;20016;-63
2022/06/08 05:34:38;;;;;;;2.28;1.58;;;;;;;27.12;40.90;96082.06;5093322;28;20020;-64
2022/06/08 05:37:03;;;;;;;6.25;1.88;;;;;;;27.09;40.23;96083.22;5093217;28;20024;-65
2022/06/08 05:39:29;;;;;;;6.07;1.85;;;;;;;26.85;39.29;96086.81;5093214;28;20111;-64
2022/06/08 05:41:55;;;;;;;5.43;1.83;;;;;;;26.80;41.61;96081.97;5093109;28;20055;-63
2022/06/08 05:44:21;;;;;;;2.17;1.83;;;;;;;26.54;41.10;96088.38;5093102;28;20016;-65
2022/06/08 05:46:49;;;;;;;3.35;1.85;;;;;;;26.07;41.08;96081.88;5093073;28;20043;-65
2022/06/08 05:49:16;;;;;;;2.63;1.70;;;;;;;25.69;43.14;96082.31;5092934;28;20082;-64
2022/06/08 05:51:43;;;;;;;2.92;1.98;;;;;;;25.27;44.05;96086.69;5093686;28;20458;-63
2022/06/08 05:54:10;;;;;;;2.10;1.90;;;;;;;25.21;43.20;96090.88;5097309;28;20016;-63
2022/06/08 05:56:36;;;;;;;4.10;1.60;;;;;;;25.05;41.66;96105.03;5097214;28;20048;-66
2022/06/08 05:59:02;;;;;;;4.15;1.83;;;;;;;25.24;42.57;96102.09;5097169;28;20051;-65
2022/06/08 06:01:27;;;;;;;8.43;1.70;;;;;;;25.33;42.96;96105.63;5097175;28;20504;-63
2022/06/08 06:03:54;;;;;;;5.30;1.80;;;;;;;25.04;42.75;96106.84;5097059;28;20016;-64
2022/06/08 06:06:20;;;;;;;5.43;1.90;;;;;;;25.19;41.59;96099.06;5097011;28;20483;-63
2022/06/08 06:08:45;;;;;;;1.85;1.65;;;;;;;25.41;39.38;96096.81;5096880;28;20058;-65
2022/06/08 06:11:14;;;;;;;4.50;2.00;;;;;;;25.71;41.53;96096.41;5096914;28;20016;-64
2022/06/08 06:13:41;;;;;;;2.05;1.75;;;;;;;26.08;40.61;96100.44;5096762;28;20351;-66
2022/06/08 06:16:06;;;;;;;3.20;2.00;;;;;;;25.85;41.57;96106.44;5096432;28;20474;-64
2022/06/08 06:18:33;;;;;;;3.47;2.28;;;;;;;25.67;43.60;96103.09;5096805;28;20047;-66
2022/06/08 06:20:59;;;;;;;2.95;2.05;;;;;;;25.35;44.94;96108.97;5096629;28;20025;-65
2022/06/08 06:23:26;;;;;;;4.75;2.30;;;;;;;25.56;45.78;96102.38;5096608;28;20466;-67
2022/06/08 06:25:52;;;;;;;3.88;2.25;;;;;;;26.12;43.47;96099.09;5096626;28;20105;-67
2022/06/08 06:28:18;;;;;;;4.53;2.38;;;;;;;26.28;42.99;96101.94;5096391;28;20028;-64
2022/06/08 06:30:44;;;;;;;5.88;2.13;;;;;;;26.43;42.90;96099.47;5096465;28;20027;-66
2022/06/08 06:33:14;;;;;;;4.18;2.42;;;;;;;26.39;43.09;96092.78;5096453;28;20023;-64
2022/06/08 06:35:41;;;;;;;7.30;2.60;;;;;;;26.12;44.55;96099.09;5096399;28;20027;-64
2022/06/08 06:38:09;;;;;;;3.10;2.75;;;;;;;25.84;45.62;96101.25;5096260;28;20034;-65
2022/06/08 06:40:36;;;;;;;6.07;2.97;;;;;;;25.53;45.79;96099.16;5096222;28;20114;-65
2022/06/08 06:43:02;;;;;;;5.50;2.50;;;;;;;25.34;46.48;96093.94;5096215;28;20347;-64
2022/06/08 06:45:28;;;;;;;4.20;2.90;;;;;;;25.23;47.06;96097.72;5096283;28;20078;-66
2022/06/08 06:47:54;;;;;;;5.38;3.00;;;;;;;24.99;47.56;96087.78;5096227;28;20038;-64
2022/06/08 06:50:20;;;;;;;5.75;2.83;;;;;;;24.88;48.74;96088.91;5096041;28;20028;-64
2022/06/08 06:52:46;;;;;;;10.98;2.85;;;;;;;24.86;48.23;96085.50;5096053;28;20511;-64
2022/06/08 06:55:22;;;;;;;6.13;2.90;;;;;;;25.15;48.35;96083.47;5096146;28;20024;-65
2022/06/08 06:57:48;;;;;;;8.13;3.55;;;;;;;25.59;47.59;96090.50;5096023;28;20070;-64
2022/06/08 07:00:16;;;;;;;4.38;3.20;;;;;;;25.39;45.90;96082.75;5096084;28;20052;-66
2022/06/08 07:02:42;;;;;;;6.68;3.58;;;;;;;25.32;47.51;96081.72;5095582;28;20533;-65
2022/06/08 07:05:21;;;;;;;8.90;3.08;;;;;;;25.24;45.85;96091.41;5094970;28;20111;-64
2022/06/08 07:07:47;;;;;;;4.57;3.40;;;;;;;25.14;47.22;96082.66;5095773;28;20028;-66
2022/06/08 07:10:15;;;;;;;6.40;3.65;;;;;;;25.53;49.62;96088.47;5095948;28;20020;-65
2022/06/08 07:12:40;;;;;;;6.70;3.63;;;;;;;25.69;46.11;96082.31;5095726;28;20056;-64
2022/06/08 07:15:07;;;;;;;10.82;3.95;;;;;;;25.61;46.25;96075.97;5095381;28;20064;-66
2022/06/08 07:17:33;;;;;;;5.93;3.35;;;;;;;25.65;46.59;96071.13;5095704;28;20016;-65
2022/06/08 07:19:59;;;;;;;7.97;3.85;;;;;;;25.69;46.64;96067.09;5095598;28;20081;-64
2022/06/08 07:22:24;;;;;;;5.13;3.45;;;;;;;25.93;46.56;96061.94;5095543;28;20024;-66
2022/06/08 07:24:50;;;;;;;6.38;4.20;;;;;;;26.16;47.84;96053.22;5095493;28;20048;-65
2022/06/08 07:27:17;;;;;;;8.55;3.53;;;;;;;26.17;46.74;96057.56;5095454;28;20051;-66
2022/06/08 07:29:42;;;;;;;3.80;3.10;;;;;;;26.33;45.36;96054.06;5095386;28;20020;-65
2022/06/08 07:32:08;;;;;;;8.40;2.75;;;;;;;26.90;45.24;96054.09;5095376;28;20043;-65
2022/06/08 07:34:34;;;;;;;5.97;3.15;;;;;;;27.47;44.13;96050.31;5095364;28;20024;-66
2022/06/08 07:37:00;;;;;;;6.28;2.75;;;;;;;27.96;41.21;96044.81;5095229;28;20057;-65
2022/06/08 07:39:27;;;;;;;6.88;2.92;;;;;;;28.24;43.24;96045.03;5095122;28;20032;-64
2022/06/08 07:41:53;;;;;;;5.78;3.22;;;;;;;28.22;41.78;96046.25;5095075;28;20024;-66
2022/06/08 07:44:20;;;;;;;5.30;2.78;;;;;;;28.26;41.23;96044.84;5095130;28;20487;-66
2022/06/08 07:46:46;;;;;;;3.42;3.13;;;;;;;28.25;40.77;96048.56;5095164;28;20032;-65
2022/06/08 07:49:49;;;;;;;5.40;3.17;;;;;;;28.19;41.61;96041.25;5094997;28;20055;-64
2022/06/08 07:52:08;;;;;;;3.88;2.80;;;;;;;28.23;41.92;96038.00;5092687;28;20117;-65
2022/06/08 07:54:33;;;;;;;3.70;3.00;;;;;;;28.43;40.47;96040.19;5094983;28;20020;-64
2022/06/08 07:57:01;;;;;;;4.30;3.60;;;;;;;28.73;41.13;96039.38;5094842;28;20020;-65
2022/06/08 07:59:30;;;;;;;5.97;3.28;;;;;;;28.17;37.73;96041.41;5094819;28;20027;-64
2022/06/08 08:01:57;;;;;;;6.05;3.38;;;;;;;27.55;39.53;96043.22;5094753;28;20103;-65
2022/06/08 08:04:23;;;;;;;3.78;3.13;;;;;;;27.44;41.35;96053.34;5094708;28;20101;-65
2022/06/08 08:06:49;;;;;;;3.47;3.13;;;;;;;27.77;42.00;96048.78;5094714;28;20031;-64
2022/06/08 08:09:20;;;;;;;4.50;3.25;;;;;;;27.82;41.72;96046.41;5094528;28;20024;-64
2022/06/08 08:11:47;;;;;;;8.65;4.03;;;;;;;27.16;43.22;96040.44;5094607;28;20031;-64
2022/06/08 08:14:14;;;;;;;6.13;4.32;;;;;;;27.44;44.68;96044.44;5094177;28;20393;-64
2022/06/08 08:16:41;;;;;;;5.75;3.78;;;;;;;27.84;43.58;96039.84;5094176;28;20044;-65
2022/06/08 08:19:06;;;;;;;7.45;4.35;;;;;;;28.17;43.05;96038.72;5094284;28;20028;-64
2022/06/08 08:21:32;;;;;;;7.05;4.55;;;;;;;28.54;42.38;96047.00;5094287;28;20523;-64
2022/06/08 08:23:59;;;;;;;4.47;4.07;;;;;;;28.79;40.80;96043.19;5094338;28;20024;-64
2022/06/08 08:26:27;;;;;;;7.88;4.57;;;;;;;28.85;40.55;96045.13;5094233;28;20028;-64
2022/06/08 08:28:54;;;;;;;9.27;4.32;;;;;;;28.85;40.51;96040.59;5094163;28;20035;-65
2022/06/08 08:31:20;;;;;;;8.98;4.50;;;;;;;28.84;40.45;96046.16;5094093;28;20510;-65
2022/06/08 08:33:45;;;;;;;5.75;3.90;;;;;;;28.88;40.37;96048.28;5094047;28;20107;-65
2022/06/08 08:36:11;;;;;;;7.35;4.50;;;;;;;28.84;41.72;96041.59;5094183;28;20024;-64
2022/06/08 08:38:37;;;;;;;4.95;4.07;;;;;;;29.23;41.61;96049.56;5094085;28;20111;-64
2022/06/08 08:42:20;;;;;;;11.60;4.10;;;;;;;29.57;40.27;96047.28;5093998;28;20034;-64
2022/06/08 08:43:50;;;;;;;8.32;3.70;;;;;;;29.99;39.61;96052.88;5093987;28;20024;-65
2022/06/08 08:46:28;;;;;;;4.35;3.83;;;;;;;30.15;37.07;96049.06;5093979;28;20035;-64
2022/06/08 08:49:06;;;;;;;9.35;4.70;;;;;;;29.46;36.46;96051.25;5093916;28;20028;-65
2022/06/08 08:51:41;;;;;;;10.30;3.60;;;;;;;28.97;39.77;96056.28;5093962;28;20111;-65
2022/06/08 08:54:36;;;;;;;5.07;4.15;;;;;;;28.99;39.82;96052.38;5093690;28;20028;-64
2022/06/08 08:57:04;;;;;;;9.65;4.45;;;;;;;29.09;39.36;96049.41;5093652;28;20024;-64
2022/06/08 08:59:31;;;;;;;8.32;4.63;;;;;;;29.28;39.32;96054.41;5093659;28;20027;-65
2022/06/08 09:01:59;;;;;;;7.35;3.85;;;;;;;29.28;39.89;96051.72;5093682;28;20492;-65
2022/06/08 09:04:36;;;;;;;5.50;4.07;;;;;;;29.11;41.50;96044.66;5093613;28;20102;-64
2022/06/08 09:07:13;;;;;;;5.88;4.22;;;;;;;28.82;37.90;96051.72;5093560;28;20086;-65
2022/06/08 09:09:39;;;;;;;7.10;4.05;;;;;;;27.81;40.13;96045.56;5093481;28;20028;-64
2022/06/08 09:12:05;;;;;;;5.97;3.97;;;;;;;27.13;42.90;96048.81;5093585;28;20347;-65
2022/06/08 09:14:58;;;;;;;6.40;3.92;;;;;;;27.38;44.29;96044.16;5093423;28;20432;-64
2022/06/08 09:17:39;;;;;;;8.30;3.80;;;;;;;27.70;42.09;96043.31;5093601;28;20397;-64
2022/06/08 09:20:27;;;;;;;5.95;3.92;;;;;;;28.16;42.97;96042.44;5093402;28;20050;-64
2022/06/08 09:22:57;;;;;;;5.72;3.67;;;;;;;28.30;41.00;96046.22;5093427;28;20114;-65
2022/06/08 09:25:34;;;;;;;8.07;4.20;;;;;;;28.31;40.31;96045.19;5093432;28;20386;-64
2022/06/08 09:28:01;;;;;;;5.63;3.78;;;;;;;28.10;41.51;96051.22;5092511;28;20036;-65
2022/06/08 09:30:31;;;;;;;4.82;3.50;;;;;;;27.92;41.03;96044.31;5093321;28;20492;-65
2022/06/08 09:33:17;;;;;;;3.95;3.55;;;;;;;27.98;41.63;96045.44;5093292;28;20053;-64
2022/06/08 09:36:02;;;;;;;4.50;3.58;;;;;;;27.91;41.65;96041.81;5093331;28;20115;-64
2022/06/08 09:38:32;;;;;;;7.85;3.58;;;;;;;27.67;40.63;96041.84;5093338;28;20028;-65
2022/06/08 09:41:01;;;;;;;;;;;;;;;27.46;42.15;96040.59;5093638;28;20044;-64
2022/06/08 09:43:55;;;;;;;4.50;3.20;;;;;;;27.18;42.39;96038.38;5093274;28;19916;-64
2022/06/08 09:53:00;;;;;;;3.97;3.58;;;;;;;26.46;44.40;96026.75;5085537;28;20476;-64
2022/06/08 09:55:46;;;;;;;4.22;3.45;;;;;;;26.41;44.57;96034.44;5092975;28;20031;-64
2022/06/08 09:58:24;;;;;;;4.70;3.28;;;;;;;26.33;44.86;96029.94;5093081;28;20069;-64
2022/06/08 10:00:52;;;;;;;3.78;3.05;;;;;;;26.33;44.87;96029.94;5092981;28;20413;-64
2022/06/08 10:03:46;;;;;;;4.53;3.15;;;;;;;26.36;44.13;96029.59;5093011;28;20039;-64
2022/06/08 10:06:20;;;;;;;6.13;3.05;;;;;;;26.32;44.80;96028.28;5092944;28;20024;-64
2022/06/08 10:09:02;;;;;;;5.97;3.20;;;;;;;26.31;45.28;96030.09;5092805;28;20039;-65
2022/06/08 10:12:04;;;;;;;6.03;3.05;;;;;;;26.22;45.10;96031.13;5092991;28;20082;-65
2022/06/08 10:14:45;;;;;;;5.47;3.40;;;;;;;26.14;45.22;96023.91;5092875;28;20032;-64
2022/06/08 10:17:23;;;;;;;6.13;2.90;;;;;;;26.16;45.18;96029.09;5092624;28;20055;-64
2022/06/08 10:20:04;;;;;;;4.95;3.30;;;;;;;26.13;45.34;96014.22;5092670;28;20546;-64
2022/06/08 10:22:37;;;;;;;4.50;3.15;;;;;;;25.96;46.27;96019.59;5092885;28;20039;-64
2022/06/08 10:25:19;;;;;;;7.60;3.38;;;;;;;25.78;46.15;96019.75;5092838;28;20021;-65
2022/06/08 10:28:02;;;;;;;5.07;3.15;;;;;;;25.69;46.08;96026.09;5092678;28;20470;-64
2022/06/08 10:30:34;;;;;;;5.82;3.40;;;;;;;25.71;46.05;96024.91;5092704;28;20482;-64
2022/06/08 10:33:10;;;;;;;7.75;3.08;;;;;;;25.73;45.19;96017.56;5092695;28;20063;-64
2022/06/08 10:35:44;;;;;;;6.35;3.40;;;;;;;25.76;46.04;96020.94;5092656;28;20024;-64
2022/06/08 10:38:20;;;;;;;3.78;3.15;;;;;;;25.79;46.82;96023.28;5094040;28;20031;-64
2022/06/08 10:42:39;;;;;;;3.60;3.00;;;;;;;25.92;47.65;96020.09;5096423;28;20040;-65
2022/06/08 10:43:58;;;;;;;4.57;3.33;;;;;;;26.13;46.60;96019.56;5096167;28;20486;-64
2022/06/08 10:46:40;;;;;;;4.82;3.13;;;;;;;26.38;44.41;96022.22;5096172;28;20068;-64
2022/06/08 10:49:37;;;;;;;3.00;2.72;;;;;;;26.44;44.38;96018.03;5096178;28;20373;-64
2022/06/08 10:52:17;;;;;;;5.90;2.70;;;;;;;26.53;43.53;96010.78;5096071;28;20057;-64
2022/06/08 10:54:57;;;;;;;;;;;;;;;26.57;43.34;96004.06;5096471;28;20032;-64
2022/06/08 10:57:39;;;;;;;6.97;2.97;;;;;;;26.22;43.32;96007.00;5096098;28;19951;-64
2022/06/08 11:00:20;;;;;;;5.75;3.53;;;;;;;25.99;45.13;96002.31;5096107;28;20042;-64
2022/06/08 11:03:03;;;;;;;3.88;2.88;;;;;;;25.82;44.65;96005.00;5095864;28;20024;-64
2022/06/08 11:05:31;;;;;;;8.27;3.00;;;;;;;25.91;45.50;96007.72;5095917;28;20020;-64
2022/06/08 11:08:04;;;;;;;3.45;3.00;;;;;;;26.30;43.96;95995.44;5095672;28;20474;-65
2022/06/08 11:10:49;;;;;;;3.28;2.97;;;;;;;26.31;43.24;95992.59;5095840;28;20076;-63
2022/06/08 11:13:27;;;;;;;4.22;2.60;;;;;;;26.32;43.96;95985.38;5095697;28;20114;-64
2022/06/08 11:15:52;;;;;;;7.45;3.35;;;;;;;26.16;43.82;95980.88;5095444;28;20040;-64
2022/06/08 11:18:30;;;;;;;4.38;3.08;;;;;;;25.94;41.86;95978.72;5095534;28;20027;-67
2022/06/08 11:21:23;;;;;;;4.45;2.40;;;;;;;25.85;43.27;95969.03;5095566;28;20123;-64
2022/06/08 11:24:01;;;;;;;4.25;3.00;;;;;;;25.92;45.31;95970.03;5095607;28;20058;-64
2022/06/08 11:26:53;;;;;;;4.10;3.00;;;;;;;26.02;46.51;95972.53;5095450;28;20042;-64
2022/06/08 11:29:18;;;;;;;4.13;2.20;;;;;;;26.21;44.84;95974.00;5095452;28;20066;-65
2022/06/08 11:31:44;;;;;;;5.72;2.53;;;;;;;26.36;44.83;95973.31;5095402;28;20122;-64
2022/06/08 11:34:18;;;;;;;3.53;2.45;;;;;;;26.32;43.45;95977.34;5095370;28;20525;-64
2022/06/08 11:37:14;;;;;;;3.38;2.63;;;;;;;26.36;44.32;95976.00;5095206;28;20024;-64
2022/06/08 11:39:44;;;;;;;6.20;2.50;;;;;;;26.44;43.46;95969.78;5095389;28;20028;-64
2022/06/08 11:42:36;;;;;;;4.72;2.80;;;;;;;26.54;42.85;95973.09;5095227;28;20024;-64
2022/06/08 11:45:12;;;;;;;7.10;2.75;;;;;;;26.57;43.28;95972.75;5095129;28;20443;-65
2022/06/08 11:48:04;;;;;;;6.93;2.60;;;;;;;26.24;43.71;95973.66;5095004;28;20081;-64
2022/06/08 11:50:45;;;;;;;3.13;2.80;;;;;;;26.11;45.25;95973.34;5094408;28;20031;-64
2022/06/08 11:53:19;;;;;;;3.08;2.78;;;;;;;25.82;47.55;95972.03;5095145;28;20478;-64
2022/06/08 11:56:08;;;;;;;5.90;2.75;;;;;;;25.39;46.00;95970.34;5094933;28;20024;-64
2022/06/08 11:58:36;;;;;;;4.17;2.87;;;;;;;24.98;47.82;95971.06;5094822;28;20040;-65
2022/06/08 12:01:23;;;;;;;3.83;2.65;;;;;;;24.27;48.25;95976.63;5094701;28;20099;-63
2022/06/08 12:03:58;;;;;;;3.78;2.80;;;;;;;23.86;50.26;95975.31;5094466;28;20486;-64
2022/06/08 12:06:33;;;;;;;6.93;3.03;;;;;;;23.85;52.19;95974.50;5094795;28;20028;-64